createdAt,value
2018-07-20T00:00:06.109Z,95360.00
2018-07-20T00:02:35.318Z,95362.00
2018-07-20T00:05:04.661Z,95351.00
2018-07-20T00:07:33.895Z,95359.00
2018-07-20T00:10:03.003Z,95351.00
2018-07-20T00:12:32.165Z,95350.00
2018-07-20T00:15:01.386Z,95350.00
2018-07-20T00:17:30.559Z,95348.00
2018-07-20T00:19:59.733Z,95342.00
2018-07-20T00:22:29.015Z,95337.00
2018-07-20T00:24:58.253Z,95339.00
2018-07-20T00:27:27.470Z,95343.00
2018-07-20T00:29:56.647Z,95338.00
2018-07-20T00:32:25.766Z,95324.00
2018-07-20T00:34:55.039Z,95328.00
2018-07-20T00:37:24.277Z,95322.00
2018-07-20T00:39:53.477Z,95319.00
2018-07-20T00:42:22.872Z,95323.00
2018-07-20T00:44:52.893Z,95322.00
2018-07-20T00:47:23.002Z,95319.00
2018-07-20T00:49:53.021Z,95321.00
2018-07-20T00:52:23.094Z,95321.00
2018-07-20T00:54:53.023Z,95317.00
2018-07-20T00:57:23.091Z,95316.00
2018-07-20T00:59:52.981Z,95314.00
2018-07-20T01:02:22.126Z,95314.00
2018-07-20T01:04:51.390Z,95314.00
2018-07-20T01:07:20.578Z,95318.00
2018-07-20T01:09:49.695Z,95313.00
2018-07-20T01:12:18.813Z,95314.00
2018-07-20T01:14:48.128Z,95315.00
2018-07-20T01:17:17.285Z,95315.00
2018-07-20T01:19:46.478Z,95307.00
2018-07-20T01:22:15.674Z,95315.00
2018-07-20T01:24:44.826Z,95309.00
2018-07-20T01:27:13.965Z,95308.00
2018-07-20T01:29:43.167Z,95312.00
2018-07-20T01:32:12.258Z,95310.00
2018-07-20T01:34:41.505Z,95310.00
2018-07-20T01:37:10.786Z,95309.00
2018-07-20T01:39:39.967Z,95308.00
2018-07-20T01:42:09.814Z,95306.00
2018-07-20T01:44:39.101Z,95314.00
2018-07-20T01:47:08.234Z,95305.00
2018-07-20T01:49:37.365Z,95308.00
2018-07-20T01:52:06.538Z,95308.00
2018-07-20T01:54:35.725Z,95301.00
2018-07-20T01:57:04.925Z,95301.00
2018-07-20T01:59:34.216Z,95293.00
2018-07-20T02:02:03.388Z,95298.00
2018-07-20T02:04:32.553Z,95293.00
2018-07-20T02:07:01.662Z,95299.00
2018-07-20T02:09:30.926Z,95295.00
2018-07-20T02:12:00.047Z,95294.00
2018-07-20T02:14:29.227Z,95293.00
2018-07-20T02:16:58.430Z,95284.00
2018-07-20T02:19:27.599Z,95286.00
2018-07-20T02:21:56.801Z,95284.00
2018-07-20T02:24:27.057Z,95282.00
2018-07-20T02:26:56.313Z,95279.00
2018-07-20T02:29:25.525Z,95278.00
2018-07-20T02:31:54.630Z,95281.00
2018-07-20T02:34:24.533Z,95281.00
2018-07-20T02:36:54.365Z,95278.00
2018-07-20T02:39:24.450Z,95278.00
2018-07-20T02:41:54.446Z,95281.00
2018-07-20T02:44:24.621Z,95285.00
2018-07-20T02:46:54.637Z,95286.00
2018-07-20T02:49:24.630Z,95283.00
2018-07-20T02:51:54.630Z,95287.00
2018-07-20T02:54:24.605Z,95280.00
2018-07-20T02:56:54.684Z,95279.00
2018-07-20T02:59:24.790Z,95283.00
2018-07-20T03:01:54.791Z,95272.00
2018-07-20T03:04:25.933Z,95285.00
2018-07-20T03:06:55.274Z,95269.00
2018-07-20T03:09:25.046Z,95270.00
2018-07-20T03:11:54.990Z,95276.00
2018-07-20T03:14:25.026Z,95275.00
2018-07-20T03:16:54.966Z,95274.00
2018-07-20T03:19:25.178Z,95274.00
2018-07-20T03:21:55.122Z,95269.00
2018-07-20T03:24:25.133Z,95273.00
2018-07-20T03:26:55.194Z,95278.00
2018-07-20T03:29:25.187Z,95273.00
2018-07-20T03:31:55.391Z,95271.00
2018-07-20T03:34:25.266Z,95274.00
2018-07-20T03:36:55.385Z,95267.00
2018-07-20T03:39:25.426Z,95274.00
2018-07-20T03:41:55.357Z,95264.00
2018-07-20T03:44:25.464Z,95272.00
2018-07-20T03:46:55.566Z,95262.00
2018-07-20T03:49:25.554Z,95269.00
2018-07-20T03:51:55.543Z,95271.00
2018-07-20T03:54:25.621Z,95278.00
2018-07-20T03:56:55.598Z,95270.00
2018-07-20T03:59:25.730Z,95276.00
2018-07-20T04:01:55.734Z,95266.00
2018-07-20T04:04:25.706Z,95275.00
2018-07-20T04:06:55.898Z,95266.00
2018-07-20T04:09:25.848Z,95263.00
2018-07-20T04:11:55.913Z,95263.00
2018-07-20T04:14:26.709Z,95263.00
2018-07-20T04:16:55.974Z,95256.00
2018-07-20T04:19:27.020Z,95268.00
2018-07-20T04:21:56.205Z,95255.00
2018-07-20T04:24:26.905Z,95247.00
2018-07-20T04:26:56.157Z,95259.00
2018-07-20T04:29:27.197Z,95252.00
2018-07-20T04:31:56.466Z,95258.00
2018-07-20T04:34:27.363Z,95261.00
2018-07-20T04:36:56.486Z,95253.00
2018-07-20T04:39:28.369Z,95259.00
2018-07-20T04:41:57.586Z,95251.00
2018-07-20T04:44:27.524Z,95262.00
2018-07-20T04:46:56.737Z,95266.00
2018-07-20T04:49:27.619Z,95265.00
2018-07-20T04:51:56.741Z,95268.00
2018-07-20T04:54:27.409Z,95265.00
2018-07-20T04:56:56.650Z,95264.00
2018-07-20T04:59:27.393Z,95268.00
2018-07-20T05:01:56.538Z,95262.00
2018-07-20T05:04:27.765Z,95261.00
2018-07-20T05:06:56.890Z,95253.00
2018-07-20T05:09:27.521Z,95254.00
2018-07-20T05:11:56.709Z,95258.00
2018-07-20T05:14:27.965Z,95254.00
2018-07-20T05:16:57.190Z,95256.00
2018-07-20T05:40:54.049Z,95243.00
2018-07-20T05:43:23.202Z,95237.00
2018-07-20T05:45:52.394Z,95241.00
2018-07-20T05:48:21.641Z,95237.00
2018-07-20T05:50:50.914Z,95241.00
2018-07-20T05:53:20.126Z,95234.00
2018-07-20T05:55:49.301Z,95236.00
2018-07-20T05:58:18.572Z,95235.00
2018-07-20T06:00:47.854Z,95229.00
2018-07-20T06:03:16.982Z,95237.00
2018-07-20T06:05:46.166Z,95234.00
2018-07-20T06:08:15.418Z,95233.00
2018-07-20T06:10:44.473Z,95236.00
2018-07-20T06:13:13.726Z,95226.00
2018-07-20T06:15:42.903Z,95224.00
2018-07-20T06:18:12.074Z,95231.00
2018-07-20T06:20:41.195Z,95240.00
2018-07-20T06:23:10.317Z,95240.00
2018-07-20T06:25:39.421Z,95240.00
2018-07-20T06:28:08.494Z,95243.00
2018-07-20T06:30:37.746Z,95243.00
2018-07-20T06:33:07.318Z,95243.00
2018-07-20T06:35:36.522Z,95246.00
2018-07-20T06:38:05.729Z,95241.00
2018-07-20T06:40:34.875Z,95237.00
2018-07-20T06:43:04.042Z,95250.00
2018-07-20T06:45:33.243Z,95251.00
2018-07-20T06:48:02.486Z,95245.00
2018-07-20T06:50:31.660Z,95249.00
2018-07-20T06:53:00.725Z,95247.00
2018-07-20T06:55:29.951Z,95244.00
2018-07-20T06:57:59.088Z,95242.00
2018-07-20T07:00:28.689Z,95253.00
2018-07-20T07:02:58.143Z,95256.00
2018-07-20T07:05:28.526Z,95255.00
2018-07-20T07:07:58.111Z,95254.00
2018-07-20T07:10:28.124Z,95258.00
2018-07-20T07:12:57.920Z,95253.00
2018-07-20T07:15:28.107Z,95260.00
2018-07-20T07:17:58.214Z,95260.00
2018-07-20T07:20:28.374Z,95258.00
2018-07-20T07:22:58.149Z,95262.00
2018-07-20T07:25:28.526Z,95262.00
2018-07-20T07:27:58.592Z,95258.00
2018-07-20T07:30:28.323Z,95264.00
2018-07-20T07:32:58.461Z,95256.00
2018-07-20T07:35:28.520Z,95253.00
2018-07-20T07:37:58.525Z,95252.00
2018-07-20T07:40:28.592Z,95257.00
2018-07-20T07:42:58.475Z,95252.00
2018-07-20T07:45:28.398Z,95251.00
2018-07-20T07:47:58.557Z,95254.00
2018-07-20T07:50:30.082Z,95254.00
2018-07-20T07:52:59.153Z,95250.00
2018-07-20T07:55:28.701Z,95255.00
2018-07-20T07:57:58.660Z,95243.00
2018-07-20T08:00:28.634Z,95250.00
2018-07-20T08:02:58.849Z,95239.00
2018-07-20T08:05:28.944Z,95244.00
2018-07-20T08:07:58.810Z,95251.00
2018-07-20T08:10:28.829Z,95243.00
2018-07-20T08:12:58.513Z,95237.00
2018-07-20T08:15:28.563Z,95239.00
2018-07-20T08:18:01.402Z,95246.00
2018-07-20T08:20:30.555Z,95234.00
2018-07-20T08:23:00.664Z,95236.00
2018-07-20T08:25:29.774Z,95228.00
2018-07-20T08:27:58.933Z,95234.00
2018-07-20T08:30:28.934Z,95232.00
2018-07-20T08:33:00.228Z,95229.00
2018-07-20T08:35:29.393Z,95234.00
2018-07-20T08:37:59.090Z,95232.00
2018-07-20T08:40:29.281Z,95226.00
2018-07-20T08:42:59.017Z,95230.00
2018-07-20T08:45:29.062Z,95231.00
2018-07-20T08:47:59.107Z,95232.00
2018-07-20T08:50:29.105Z,95238.00
2018-07-20T08:52:58.951Z,95233.00
2018-07-20T08:55:29.200Z,95231.00
2018-07-20T08:57:59.181Z,95226.00
2018-07-20T09:00:29.235Z,95230.00
2018-07-20T09:02:59.399Z,95226.00
2018-07-20T09:05:29.250Z,95224.00
2018-07-20T09:07:59.285Z,95232.00
2018-07-20T09:10:29.389Z,95230.00
2018-07-20T09:12:59.351Z,95228.00
2018-07-20T09:15:29.417Z,95223.00
2018-07-20T09:17:59.466Z,95235.00
2018-07-20T09:20:29.407Z,95233.00
2018-07-20T09:22:59.473Z,95228.00
2018-07-20T09:25:29.387Z,95227.00
2018-07-20T09:27:59.492Z,95235.00
2018-07-20T09:30:29.526Z,95236.00
2018-07-20T09:32:59.603Z,95226.00
2018-07-20T09:35:29.649Z,95231.00
2018-07-20T09:59:32.892Z,95238.00
2018-07-20T10:02:02.054Z,95235.00
2018-07-20T10:04:31.301Z,95230.00
2018-07-20T10:07:00.432Z,95234.00
2018-07-20T10:09:30.213Z,95229.00
2018-07-20T10:12:00.187Z,95227.00
2018-07-20T10:14:30.178Z,95231.00
2018-07-20T10:38:26.977Z,95206.00
2018-07-20T10:40:56.084Z,95209.00
2018-07-20T10:43:25.424Z,95205.00
2018-07-20T10:45:54.636Z,95203.00
2018-07-20T10:48:23.866Z,95198.00
2018-07-20T10:50:53.024Z,95202.00
2018-07-20T10:53:22.325Z,95191.00
2018-07-20T10:55:51.889Z,95196.00
2018-07-20T10:58:22.460Z,95187.00
2018-07-20T11:00:51.577Z,95185.00
2018-07-20T11:03:22.480Z,95179.00
2018-07-20T11:05:51.713Z,95179.00
2018-07-20T11:08:20.949Z,95181.00
2018-07-20T11:10:50.000Z,95172.00
2018-07-20T11:13:19.108Z,95167.00
2018-07-20T11:15:48.179Z,95165.00
2018-07-20T11:18:17.429Z,95157.00
2018-07-20T11:20:47.963Z,95158.00
2018-07-20T11:23:17.068Z,95159.00
2018-07-20T11:25:47.320Z,95157.00
2018-07-20T11:28:16.477Z,95151.00
2018-07-20T11:30:46.646Z,95152.00
2018-07-20T11:33:15.952Z,95146.00
2018-07-20T11:35:45.256Z,95146.00
2018-07-20T11:38:14.433Z,95141.00
2018-07-20T11:40:43.692Z,95143.00
2018-07-20T11:43:12.948Z,95139.00
2018-07-20T11:45:42.192Z,95131.00
2018-07-20T11:48:11.426Z,95129.00
2018-07-20T11:50:40.650Z,95129.00
2018-07-20T11:53:09.746Z,95126.00
2018-07-20T11:55:38.849Z,95123.00
2018-07-20T11:58:08.244Z,95125.00
2018-07-20T12:00:37.595Z,95126.00
2018-07-20T12:03:06.868Z,95121.00
2018-07-20T12:05:36.091Z,95113.00
2018-07-20T12:08:05.399Z,95112.00
2018-07-20T12:10:34.417Z,95116.00
2018-07-20T12:13:03.574Z,95120.00
2018-07-20T12:15:32.720Z,95125.00
2018-07-20T12:18:01.896Z,95116.00
2018-07-20T12:20:32.008Z,95116.00
2018-07-20T12:23:02.321Z,95111.00
2018-07-20T12:25:31.992Z,95110.00
2018-07-20T12:49:35.034Z,95096.00
2018-07-20T12:52:04.608Z,95105.00
2018-07-20T12:54:33.806Z,95093.00
2018-07-20T12:57:03.006Z,95100.00
2018-07-20T12:59:32.416Z,95093.00
2018-07-20T13:02:02.553Z,95088.00
2018-07-20T13:04:32.523Z,95092.00
2018-07-20T13:07:02.574Z,95093.00
2018-07-20T13:09:32.496Z,95092.00
2018-07-20T13:12:02.722Z,95080.00
2018-07-20T13:14:32.737Z,95085.00
2018-07-20T13:17:02.701Z,95083.00
2018-07-20T13:19:32.729Z,95085.00
2018-07-20T13:22:02.908Z,95088.00
2018-07-20T13:24:32.949Z,95081.00
2018-07-20T13:27:02.942Z,95081.00
2018-07-20T13:29:32.959Z,95070.00
2018-07-20T13:32:03.030Z,95067.00
2018-07-20T13:34:33.013Z,95064.00
2018-07-20T13:37:03.121Z,95075.00
2018-07-20T13:39:32.985Z,95063.00
2018-07-20T13:42:03.089Z,95064.00
2018-07-20T13:44:33.079Z,95072.00
2018-07-20T13:47:03.114Z,95070.00
2018-07-20T13:49:33.186Z,95068.00
2018-07-20T13:52:03.236Z,95072.00
2018-07-20T13:54:33.336Z,95068.00
2018-07-20T13:57:03.325Z,95064.00
2018-07-20T13:59:33.218Z,95075.00
2018-07-20T14:02:03.290Z,95066.00
2018-07-20T14:04:33.361Z,95062.00
2018-07-20T14:07:03.333Z,95059.00
2018-07-20T14:09:33.394Z,95062.00
2018-07-20T14:12:03.512Z,95060.00
2018-07-20T14:14:33.545Z,95061.00
2018-07-20T14:38:23.156Z,95045.00
2018-07-20T14:40:52.238Z,95041.00
2018-07-20T14:43:21.541Z,95044.00
2018-07-20T14:45:50.654Z,95041.00
2018-07-20T14:48:19.701Z,95043.00
2018-07-20T14:50:48.902Z,95045.00
2018-07-20T14:53:18.393Z,95042.00
2018-07-20T14:55:47.558Z,95039.00
2018-07-20T14:58:16.710Z,95033.00
2018-07-20T15:00:46.100Z,95037.00
2018-07-20T15:03:15.564Z,95036.00
2018-07-20T15:05:44.857Z,95029.00
2018-07-20T15:08:14.133Z,95019.00
2018-07-20T15:10:43.306Z,95024.00
2018-07-20T15:13:12.577Z,95019.00
2018-07-20T15:15:41.850Z,95023.00
2018-07-20T15:18:10.965Z,95022.00
2018-07-20T15:20:40.166Z,95017.00
2018-07-20T15:23:09.522Z,95010.00
2018-07-20T15:25:38.813Z,95016.00
2018-07-20T15:28:08.101Z,95018.00
2018-07-20T15:30:37.407Z,95007.00
2018-07-20T15:33:07.162Z,95006.00
2018-07-20T15:35:36.378Z,95004.00
2018-07-20T15:38:05.646Z,95009.00
2018-07-20T15:40:34.849Z,95003.00
2018-07-20T15:43:04.273Z,94990.00
2018-07-20T15:45:34.300Z,94988.00
2018-07-20T15:48:04.282Z,94986.00
2018-07-20T15:50:34.568Z,94989.00
2018-07-20T15:55:34.393Z,94991.00
2018-07-20T15:58:04.536Z,94988.00
2018-07-20T16:00:34.592Z,94990.00
2018-07-20T16:03:04.446Z,94992.00
2018-07-20T16:05:34.590Z,94992.00
2018-07-20T16:08:04.605Z,94996.00
2018-07-20T16:10:34.614Z,94993.00
2018-07-20T16:13:04.643Z,94989.00
2018-07-20T16:15:34.633Z,94992.00
2018-07-20T16:18:04.605Z,94989.00
2018-07-20T16:20:34.880Z,94985.00
2018-07-20T16:23:04.754Z,94983.00
2018-07-20T16:25:34.943Z,94984.00
2018-07-20T16:28:05.819Z,94994.00
2018-07-20T16:30:35.045Z,94984.00
2018-07-20T16:33:04.933Z,94990.00
2018-07-20T16:35:35.062Z,94995.00
2018-07-20T16:38:05.286Z,94994.00
2018-07-20T16:40:35.733Z,94989.00
2018-07-20T16:43:05.170Z,94993.00
2018-07-20T16:45:35.145Z,94994.00
2018-07-20T16:48:05.422Z,94994.00
2018-07-20T16:50:35.560Z,94995.00
2018-07-20T16:53:05.356Z,95000.00
2018-07-20T16:55:35.204Z,94991.00
2018-07-20T16:58:05.441Z,94991.00
2018-07-20T17:00:34.863Z,94991.00
2018-07-20T17:03:04.981Z,94993.00
2018-07-20T17:05:35.196Z,94982.00
2018-07-20T17:08:05.262Z,94989.00
2018-07-20T17:10:36.055Z,94987.00
2018-07-20T17:13:05.486Z,94987.00
2018-07-20T17:15:35.460Z,94990.00
2018-07-20T17:18:05.178Z,95000.00
2018-07-20T17:20:35.296Z,94997.00
2018-07-20T17:23:05.371Z,94994.00
2018-07-20T17:25:35.509Z,95004.00
2018-07-20T17:28:05.689Z,95001.00
2018-07-20T17:30:35.794Z,94997.00
2018-07-20T17:33:05.632Z,95003.00
2018-07-20T17:35:36.309Z,95000.00
2018-07-20T17:38:05.536Z,95002.00
2018-07-20T17:40:35.668Z,95005.00
2018-07-20T17:43:05.793Z,94992.00
2018-07-20T17:45:35.804Z,94997.00
2018-07-20T17:48:05.709Z,94995.00
2018-07-20T17:50:36.036Z,94992.00
2018-07-20T17:53:05.849Z,94997.00
2018-07-20T17:55:35.794Z,94998.00
2018-07-20T17:58:05.854Z,95001.00
2018-07-20T18:00:37.163Z,95006.00
2018-07-20T18:03:06.491Z,95000.00
2018-07-20T18:05:37.587Z,94997.00
2018-07-20T18:08:06.865Z,94992.00
2018-07-20T18:10:36.326Z,94996.00
2018-07-20T18:13:05.950Z,94990.00
2018-07-20T18:15:36.931Z,94980.00
2018-07-20T18:18:06.031Z,94985.00
2018-07-20T18:20:37.462Z,94986.00
2018-07-20T18:23:06.598Z,94983.00
2018-07-20T18:25:37.329Z,94989.00
2018-07-20T18:28:06.663Z,94986.00
2018-07-20T18:30:36.388Z,94990.00
2018-07-20T18:33:06.329Z,94979.00
2018-07-20T18:35:36.594Z,94971.00
2018-07-20T18:38:06.507Z,94982.00
2018-07-20T18:40:36.727Z,94972.00
2018-07-20T18:43:06.458Z,94981.00
2018-07-20T18:45:36.577Z,94976.00
2018-07-20T18:48:06.692Z,94984.00
2018-07-20T18:50:36.464Z,94975.00
2018-07-20T18:53:06.569Z,94977.00
2018-07-20T18:55:37.660Z,94980.00
2018-07-20T18:58:07.213Z,94992.00
2018-07-20T19:00:36.441Z,94982.00
2018-07-20T19:03:06.872Z,94989.00
2018-07-20T19:05:36.497Z,94980.00
2018-07-20T19:08:06.940Z,94967.00
2018-07-20T19:10:36.715Z,94973.00
2018-07-20T19:13:07.766Z,94964.00
2018-07-20T19:15:37.043Z,94978.00
2018-07-20T19:18:07.566Z,94971.00
2018-07-20T19:20:36.864Z,94970.00
2018-07-20T19:23:08.044Z,94977.00
2018-07-20T19:25:37.376Z,94965.00
2018-07-20T19:28:07.397Z,94971.00
2018-07-20T19:30:37.005Z,94966.00
2018-07-20T19:33:07.324Z,94971.00
2018-07-20T19:35:37.626Z,94962.00
2018-07-20T19:38:07.408Z,94971.00
2018-07-20T19:40:37.061Z,94973.00
2018-07-20T19:43:07.170Z,94980.00
2018-07-20T19:45:37.105Z,94979.00
2018-07-20T19:48:07.307Z,94983.00
2018-07-20T19:50:37.228Z,94986.00
2018-07-20T19:53:08.069Z,94983.00
2018-07-20T19:55:37.302Z,94991.00
2018-07-20T19:58:07.344Z,94995.00
2018-07-20T20:00:37.873Z,95006.00
2018-07-20T20:03:07.763Z,95004.00
2018-07-20T20:05:37.579Z,95010.00
2018-07-20T20:08:07.468Z,95013.00
2018-07-20T20:10:37.708Z,95019.00
2018-07-20T20:13:08.807Z,95015.00
2018-07-20T20:15:38.311Z,95031.00
2018-07-20T20:18:07.483Z,95030.00
2018-07-20T20:20:37.321Z,95029.00
2018-07-20T20:23:07.717Z,95041.00
2018-07-20T20:25:37.674Z,95036.00
2018-07-20T20:28:07.674Z,95045.00
2018-07-20T20:30:37.865Z,95051.00
2018-07-20T20:33:07.685Z,95064.00
2018-07-20T20:35:37.992Z,95057.00
2018-07-20T20:38:07.801Z,95063.00
2018-07-20T20:40:37.859Z,95067.00
2018-07-20T20:43:07.865Z,95062.00
2018-07-20T20:45:37.926Z,95069.00
2018-07-20T20:48:08.003Z,95061.00
2018-07-20T20:50:38.133Z,95063.00
2018-07-20T20:53:08.199Z,95062.00
2018-07-20T20:55:38.013Z,95051.00
2018-07-20T20:58:08.062Z,95061.00
2018-07-20T21:00:38.034Z,95064.00
2018-07-20T21:03:07.903Z,95072.00
2018-07-20T21:05:38.014Z,95078.00
2018-07-20T21:08:08.312Z,95074.00
2018-07-20T21:10:38.453Z,95082.00
2018-07-20T21:13:08.290Z,95100.00
2018-07-20T21:15:38.167Z,95114.00
2018-07-20T21:18:08.236Z,95126.00
2018-07-20T21:20:38.399Z,95119.00
2018-07-20T21:23:08.499Z,95124.00
2018-07-20T21:25:38.960Z,95128.00
2018-07-20T21:28:08.900Z,95126.00
2018-07-20T21:30:39.073Z,95120.00
2018-07-20T21:33:08.876Z,95122.00
2018-07-20T21:35:38.098Z,95118.00
2018-07-20T21:38:07.784Z,95106.00
2018-07-20T21:40:36.998Z,95116.00
2018-07-20T21:43:06.345Z,95116.00
2018-07-20T21:45:35.641Z,95103.00
2018-07-20T21:48:04.959Z,95117.00
2018-07-20T21:50:34.600Z,95111.00
2018-07-20T21:53:03.909Z,95119.00
2018-07-20T21:55:33.181Z,95119.00
2018-07-20T21:58:02.621Z,95111.00
2018-07-20T22:00:31.786Z,95108.00
2018-07-20T22:03:01.155Z,95109.00
2018-07-20T22:05:30.366Z,95111.00
2018-07-20T22:07:59.466Z,95102.00
2018-07-20T22:10:31.410Z,95100.00
2018-07-20T22:13:00.546Z,95091.00
2018-07-20T22:15:29.695Z,95093.00
2018-07-20T22:17:59.042Z,95095.00
2018-07-20T22:20:28.198Z,95097.00
2018-07-20T22:22:57.298Z,95081.00
2018-07-20T22:25:27.409Z,95087.00
2018-07-20T22:27:56.774Z,95089.00
2018-07-20T22:30:26.230Z,95070.00
2018-07-20T22:32:55.514Z,95069.00
2018-07-20T22:35:24.910Z,95072.00
2018-07-20T22:37:54.103Z,95066.00
2018-07-20T22:40:23.448Z,95065.00
2018-07-20T22:42:52.816Z,95063.00
2018-07-20T22:45:22.119Z,95059.00
2018-07-20T22:47:51.287Z,95048.00
2018-07-20T22:50:20.561Z,95048.00
2018-07-20T22:52:49.773Z,95040.00
2018-07-20T22:55:19.812Z,95038.00
2018-07-20T22:57:49.105Z,95034.00
2018-07-20T23:00:18.479Z,95028.00
2018-07-20T23:02:47.827Z,95033.00
2018-07-20T23:05:17.032Z,95029.00
2018-07-20T23:07:46.314Z,95024.00
2018-07-20T23:10:15.534Z,95030.00
2018-07-20T23:12:44.836Z,95015.00
2018-07-20T23:15:14.218Z,95021.00
2018-07-20T23:17:43.394Z,95022.00
2018-07-20T23:20:12.558Z,95010.00
2018-07-20T23:22:41.783Z,95016.00
2018-07-20T23:25:10.880Z,95013.00
2018-07-20T23:27:40.517Z,95010.00
2018-07-20T23:30:10.561Z,95017.00
2018-07-20T23:32:40.662Z,94998.00
2018-07-20T23:35:10.558Z,95005.00
2018-07-20T23:37:40.621Z,95006.00
2018-07-20T23:40:10.606Z,95005.00
2018-07-20T23:42:40.590Z,94997.00
2018-07-20T23:45:10.250Z,94999.00
2018-07-20T23:47:40.574Z,94993.00
2018-07-20T23:50:10.646Z,94989.00
2018-07-20T23:52:40.790Z,94986.00
2018-07-20T23:55:10.725Z,94987.00
2018-07-20T23:57:40.757Z,94991.00
